createdAt,value
2019-03-22T00:01:02.127Z,1.14
2019-03-22T00:03:33.166Z,1.09
2019-03-22T00:06:03.927Z,1.15
2019-03-22T00:08:34.944Z,0.96
2019-03-22T00:11:08.470Z,0.81
2019-03-22T00:13:39.500Z,0.68
2019-03-22T00:16:10.542Z,0.57
2019-03-22T00:18:42.736Z,0.63
2019-03-22T00:21:16.142Z,0.48
2019-03-22T00:23:46.982Z,0.49
2019-03-22T00:26:18.112Z,0.34
2019-03-22T00:28:48.927Z,0.50
2019-03-22T00:31:19.829Z,0.56
2019-03-22T00:33:50.771Z,0.59
2019-03-22T00:36:23.175Z,0.61
2019-03-22T00:38:54.022Z,0.52
2019-03-22T00:41:24.826Z,0.52
2019-03-22T00:43:55.613Z,0.66
2019-03-22T00:46:26.451Z,0.51
2019-03-22T00:48:57.294Z,0.46
2019-03-22T00:51:28.106Z,0.43
2019-03-22T00:53:59.032Z,0.60
2019-03-22T00:56:29.801Z,0.59
2019-03-22T00:59:00.650Z,0.70
2019-03-22T01:01:31.443Z,0.75
2019-03-22T01:04:02.214Z,0.72
2019-03-22T01:06:35.789Z,0.56
2019-03-22T01:09:07.996Z,0.37
2019-03-22T01:11:38.802Z,0.18
2019-03-22T01:14:09.598Z,0.13
2019-03-22T01:16:40.427Z,0.03
2019-03-22T01:19:16.134Z,0.07
2019-03-22T01:21:48.813Z,0.11
2019-03-22T01:24:20.472Z,0.01
2019-03-22T01:27:09.921Z,-0.24
2019-03-22T01:29:42.469Z,-0.23
2019-03-22T01:32:13.337Z,-0.19
2019-03-22T01:34:46.850Z,-0.07
2019-03-22T01:37:18.942Z,-0.01
2019-03-22T01:39:49.818Z,0.00
2019-03-22T01:42:20.625Z,-0.07
2019-03-22T01:44:51.541Z,-0.18
2019-03-22T01:47:25.683Z,-0.20
2019-03-22T01:49:56.533Z,-0.17
2019-03-22T01:52:28.755Z,-0.50
2019-03-22T01:54:59.575Z,-0.58
2019-03-22T01:57:30.785Z,-0.55
2019-03-22T02:00:01.706Z,-0.51
2019-03-22T02:02:32.654Z,-0.46
2019-03-22T02:05:03.696Z,-0.54
2019-03-22T02:07:36.215Z,-0.61
2019-03-22T02:10:08.879Z,-0.64
2019-03-22T02:12:42.962Z,-0.68
2019-03-22T02:15:15.277Z,-0.76
2019-03-22T02:17:46.305Z,-0.88
2019-03-22T02:20:17.800Z,-0.92
2019-03-22T02:22:51.677Z,-0.99
2019-03-22T02:25:24.547Z,-0.92
2019-03-22T02:28:04.066Z,-1.06
2019-03-22T02:30:32.475Z,-1.13
2019-03-22T02:33:06.664Z,-1.13
2019-03-22T02:35:42.880Z,-1.14
2019-03-22T02:38:14.772Z,-1.24
2019-03-22T02:40:45.668Z,-1.27
2019-03-22T02:43:16.485Z,-1.30
2019-03-22T02:45:47.332Z,-1.18
2019-03-22T02:48:19.303Z,-1.08
2019-03-22T02:50:52.071Z,-1.18
2019-03-22T02:53:24.844Z,-1.26
2019-03-22T02:55:57.297Z,-1.18
2019-03-22T02:58:28.887Z,-1.02
2019-03-22T03:00:59.888Z,-0.98
2019-03-22T03:07:30.032Z,-1.18
2019-03-22T03:16:58.909Z,-1.23
2019-03-22T03:19:29.889Z,-1.42
2019-03-22T03:27:06.786Z,-1.45
2019-03-22T03:29:37.557Z,-1.57
2019-03-22T03:32:08.326Z,-1.64
2019-03-22T03:34:39.080Z,-1.61
2019-03-22T03:37:09.801Z,-1.64
2019-03-22T03:39:40.650Z,-1.65
2019-03-22T03:42:11.486Z,-1.62
2019-03-22T03:44:42.198Z,-1.69
2019-03-22T03:47:12.934Z,-1.67
2019-03-22T03:49:43.821Z,-1.82
2019-03-22T03:52:14.707Z,-1.74
2019-03-22T03:54:45.730Z,-1.66
2019-03-22T03:57:16.625Z,-1.78
2019-03-22T03:59:47.359Z,-1.71
2019-03-22T04:02:18.108Z,-1.69
2019-03-22T04:04:48.832Z,-1.58
2019-03-22T04:07:19.596Z,-1.48
2019-03-22T04:09:50.334Z,-1.50
2019-03-22T04:12:21.071Z,-1.51
2019-03-22T04:14:51.803Z,-1.70
2019-03-22T04:17:22.564Z,-1.77
2019-03-22T04:19:53.274Z,-1.88
2019-03-22T04:22:24.004Z,-1.86
2019-03-22T04:24:54.729Z,-1.86
2019-03-22T04:27:25.467Z,-1.82
2019-03-22T04:29:56.208Z,-1.88
2019-03-22T04:32:26.976Z,-1.93
2019-03-22T04:34:57.737Z,-2.04
2019-03-22T04:37:28.504Z,-2.18
2019-03-22T04:39:59.764Z,-2.25
2019-03-22T04:42:30.655Z,-2.17
2019-03-22T04:45:01.451Z,-2.25
2019-03-22T04:47:32.412Z,-2.08
2019-03-22T04:50:04.422Z,-2.07
2019-03-22T04:52:35.636Z,-2.12
2019-03-22T04:55:06.861Z,-2.19
2019-03-22T04:57:39.057Z,-2.17
2019-03-22T05:00:11.257Z,-2.28
2019-03-22T05:02:43.611Z,-2.38
2019-03-22T05:05:15.598Z,-2.34
2019-03-22T05:07:47.084Z,-2.33
2019-03-22T05:10:19.257Z,-2.37
2019-03-22T05:12:51.435Z,-2.33
2019-03-22T05:15:22.889Z,-2.39
2019-03-22T05:17:54.599Z,-2.35
2019-03-22T05:20:26.641Z,-2.24
2019-03-22T05:22:58.760Z,-2.12
2019-03-22T05:25:30.914Z,-2.07
2019-03-22T05:28:03.555Z,-1.97
2019-03-22T05:31:50.768Z,-2.09
2019-03-22T05:34:21.525Z,-2.21
2019-03-22T05:36:52.313Z,-2.20
2019-03-22T05:39:23.033Z,-1.98
2019-03-22T05:41:53.761Z,-1.88
2019-03-22T05:44:24.492Z,-1.68
2019-03-22T05:46:55.270Z,-1.46
2019-03-22T05:49:26.495Z,-1.40
2019-03-22T05:51:57.252Z,-1.43
2019-03-22T05:54:28.104Z,-1.39
2019-03-22T05:56:58.821Z,-1.33
2019-03-22T05:59:41.625Z,-1.28
2019-03-22T06:02:03.379Z,-1.16
2019-03-22T06:04:34.167Z,-1.08
2019-03-22T06:07:04.956Z,-0.98
2019-03-22T06:09:35.710Z,-0.84
2019-03-22T06:12:06.582Z,-0.72
2019-03-22T06:14:37.574Z,-0.66
2019-03-22T06:17:08.323Z,-0.53
2019-03-22T06:19:39.440Z,-0.26
2019-03-22T06:22:10.520Z,0.27
2019-03-22T06:24:41.266Z,1.10
2019-03-22T06:27:12.014Z,2.07
2019-03-22T06:29:53.567Z,2.35
2019-03-22T06:32:15.234Z,3.59
2019-03-22T06:34:45.966Z,4.65
2019-03-22T06:37:16.766Z,5.22
2019-03-22T06:39:47.510Z,5.98
2019-03-22T06:42:18.304Z,6.23
2019-03-22T06:44:49.002Z,6.83
2019-03-22T06:47:20.084Z,7.06
2019-03-22T06:49:51.128Z,7.34
2019-03-22T06:52:21.850Z,7.00
2019-03-22T06:54:52.586Z,7.32
2019-03-22T06:57:23.359Z,7.29
2019-03-22T07:00:05.481Z,7.13
2019-03-22T07:02:26.507Z,6.37
2019-03-22T07:04:57.245Z,6.39
2019-03-22T07:07:27.967Z,7.59
2019-03-22T07:09:58.739Z,8.41
2019-03-22T07:12:29.503Z,9.54
2019-03-22T07:15:00.382Z,10.63
2019-03-22T07:17:31.301Z,10.99
2019-03-22T07:20:02.107Z,10.99
2019-03-22T07:22:33.425Z,11.56
2019-03-22T07:25:04.477Z,11.82
2019-03-22T07:27:35.278Z,11.84
2019-03-22T07:30:17.680Z,10.17
2019-03-22T07:32:39.357Z,9.51
2019-03-22T07:35:10.560Z,10.81
2019-03-22T07:37:41.312Z,12.36
2019-03-22T07:40:13.187Z,13.51
2019-03-22T07:42:43.906Z,14.97
2019-03-22T07:45:15.467Z,15.51
2019-03-22T07:47:46.365Z,16.08
2019-03-22T07:50:17.216Z,15.49
2019-03-22T07:52:47.953Z,16.67
2019-03-22T07:55:19.947Z,15.37
2019-03-22T07:57:50.742Z,17.20
2019-03-22T08:00:30.565Z,18.06
2019-03-22T08:02:55.008Z,17.95
2019-03-22T08:05:26.798Z,17.49
2019-03-22T08:07:57.536Z,17.27
2019-03-22T08:10:28.561Z,16.26
2019-03-22T08:12:59.393Z,15.74
2019-03-22T08:15:34.407Z,16.90
2019-03-22T08:18:05.534Z,18.05
2019-03-22T08:20:38.739Z,16.23
2019-03-22T08:23:20.750Z,16.80
2019-03-22T08:25:51.531Z,15.92
2019-03-22T08:28:22.226Z,18.20
2019-03-22T08:30:52.971Z,17.69
2019-03-22T08:33:23.811Z,19.67
2019-03-22T08:35:54.560Z,18.76
2019-03-22T08:38:25.322Z,20.43
2019-03-22T08:40:56.336Z,21.11
2019-03-22T08:43:27.239Z,23.00
2019-03-22T08:45:57.966Z,23.56
2019-03-22T08:48:28.695Z,22.91
2019-03-22T08:50:59.539Z,21.17
2019-03-22T08:53:30.411Z,22.79
2019-03-22T08:58:30.944Z,22.40
2019-03-22T09:01:01.703Z,24.40
2019-03-22T09:03:32.454Z,24.93
2019-03-22T09:06:03.357Z,23.52
2019-03-22T09:08:34.073Z,23.51
2019-03-22T09:11:05.425Z,23.70
2019-03-22T09:13:36.225Z,25.04
2019-03-22T09:16:07.022Z,28.00
2019-03-22T09:18:37.791Z,29.04
2019-03-22T09:21:08.622Z,29.48
2019-03-22T09:23:39.684Z,29.07
2019-03-22T09:26:10.453Z,28.88
2019-03-22T09:28:41.445Z,29.97
2019-03-22T09:31:12.507Z,28.90
2019-03-22T09:33:43.359Z,28.78
2019-03-22T09:36:14.413Z,30.40
2019-03-22T09:38:45.181Z,30.39
2019-03-22T09:41:15.938Z,32.19
2019-03-22T09:43:46.670Z,31.74
2019-03-22T09:46:17.499Z,27.19
2019-03-22T09:48:48.755Z,27.81
2019-03-22T09:51:19.485Z,27.20
2019-03-22T09:53:50.257Z,26.90
2019-03-22T09:56:20.997Z,28.70
2019-03-22T09:58:51.716Z,21.98
2019-03-22T10:01:23.913Z,24.81
2019-03-22T10:03:54.971Z,25.72
2019-03-22T10:06:25.751Z,24.48
2019-03-22T10:08:56.576Z,23.83
2019-03-22T10:11:27.305Z,25.26
2019-03-22T10:13:58.021Z,27.04
2019-03-22T10:16:29.295Z,24.24
2019-03-22T10:19:01.867Z,27.66
2019-03-22T10:21:32.685Z,29.77
2019-03-22T10:24:04.015Z,29.40
2019-03-22T10:26:34.866Z,30.53
2019-03-22T10:29:07.086Z,31.12
2019-03-22T10:31:38.331Z,26.71
2019-03-22T10:34:09.103Z,22.09
2019-03-22T10:36:39.966Z,22.86
2019-03-22T10:39:11.453Z,25.08
2019-03-22T10:41:42.158Z,26.46
2019-03-22T10:44:12.984Z,28.45
2019-03-22T10:46:43.722Z,27.84
2019-03-22T10:49:14.600Z,28.56
2019-03-22T10:51:56.054Z,29.38
2019-03-22T10:54:17.855Z,27.76
2019-03-22T10:56:48.538Z,30.53
2019-03-22T10:59:19.276Z,32.43
2019-03-22T11:02:02.569Z,30.22
2019-03-22T11:04:22.533Z,29.81
2019-03-22T11:06:53.345Z,31.23
2019-03-22T11:09:24.203Z,31.96
2019-03-22T11:11:55.036Z,31.41
2019-03-22T11:14:25.870Z,33.20
2019-03-22T11:16:56.761Z,32.81
2019-03-22T11:19:27.482Z,29.87
2019-03-22T11:21:58.297Z,25.35
2019-03-22T11:24:29.014Z,26.79
2019-03-22T11:27:00.104Z,26.13
2019-03-22T11:29:30.892Z,29.18
2019-03-22T11:32:01.723Z,30.46
2019-03-22T11:34:32.472Z,27.81
2019-03-22T11:37:03.220Z,28.17
2019-03-22T11:39:33.955Z,29.67
2019-03-22T11:42:04.890Z,30.91
2019-03-22T11:44:35.642Z,31.69
2019-03-22T11:47:06.628Z,32.31
2019-03-22T11:49:37.589Z,32.51
2019-03-22T11:52:08.400Z,33.53
2019-03-22T11:54:39.113Z,28.47
2019-03-22T11:57:09.868Z,28.07
2019-03-22T11:59:40.624Z,28.10
2019-03-22T12:02:11.488Z,25.25
2019-03-22T12:04:42.310Z,24.95
2019-03-22T12:07:15.026Z,27.29
2019-03-22T12:09:45.729Z,25.61
2019-03-22T12:12:16.563Z,27.11
2019-03-22T12:14:48.258Z,26.41
2019-03-22T12:17:18.983Z,26.26
2019-03-22T12:19:49.789Z,29.49
2019-03-22T12:22:20.523Z,30.56
2019-03-22T12:24:51.268Z,33.59
2019-03-22T12:27:22.224Z,28.57
2019-03-22T12:29:53.450Z,31.02
2019-03-22T12:32:32.002Z,30.88
2019-03-22T12:34:56.728Z,30.68
2019-03-22T12:37:27.465Z,31.27
2019-03-22T12:39:58.199Z,30.00
2019-03-22T12:42:28.975Z,27.27
2019-03-22T12:44:59.987Z,25.89
2019-03-22T12:47:30.740Z,29.37
2019-03-22T12:50:01.527Z,32.06
2019-03-22T12:52:32.280Z,30.87
2019-03-22T12:55:03.049Z,28.96
2019-03-22T12:57:33.786Z,23.57
2019-03-22T13:00:05.797Z,24.36
2019-03-22T13:02:42.299Z,22.31
2019-03-22T13:05:09.522Z,20.37
2019-03-22T13:07:40.667Z,19.98
2019-03-22T13:10:12.839Z,19.89
2019-03-22T13:12:43.603Z,19.75
2019-03-22T13:15:15.149Z,19.54
2019-03-22T13:17:45.914Z,19.42
2019-03-22T13:20:17.531Z,19.71
2019-03-22T13:22:48.271Z,20.11
2019-03-22T13:25:21.092Z,20.86
2019-03-22T13:27:51.590Z,21.46
2019-03-22T13:30:36.653Z,22.72
2019-03-22T13:33:07.515Z,22.96
2019-03-22T13:35:38.230Z,22.90
2019-03-22T13:38:09.187Z,23.50
2019-03-22T13:40:39.956Z,24.83
2019-03-22T13:43:10.672Z,25.02
2019-03-22T13:45:41.456Z,25.40
2019-03-22T13:48:12.279Z,25.40
2019-03-22T13:50:43.075Z,25.22
2019-03-22T13:53:13.825Z,24.87
2019-03-22T13:55:44.544Z,26.08
2019-03-22T13:58:15.261Z,24.39
2019-03-22T14:00:46.419Z,23.22
2019-03-22T14:03:17.228Z,23.17
2019-03-22T14:05:47.943Z,22.55
2019-03-22T14:08:18.920Z,22.73
2019-03-22T14:10:50.179Z,21.88
2019-03-22T14:13:21.435Z,23.73
2019-03-22T14:15:52.466Z,24.37
2019-03-22T14:18:23.200Z,23.92
2019-03-22T14:20:53.974Z,24.62
2019-03-22T14:23:25.608Z,25.78
2019-03-22T14:25:56.334Z,26.07
2019-03-22T14:28:27.110Z,25.06
2019-03-22T14:30:57.862Z,24.96
2019-03-22T14:33:28.590Z,24.45
2019-03-22T14:35:59.404Z,22.00
2019-03-22T14:38:31.022Z,20.70
2019-03-22T14:41:01.815Z,19.84
2019-03-22T14:43:32.561Z,19.43
2019-03-22T14:46:03.411Z,19.68
2019-03-22T14:48:34.198Z,19.42
2019-03-22T14:51:04.933Z,19.46
2019-03-22T14:53:35.686Z,19.31
2019-03-22T14:56:06.503Z,19.47
2019-03-22T14:58:37.257Z,19.61
2019-03-22T15:01:08.248Z,19.42
2019-03-22T15:03:39.782Z,19.46
2019-03-22T15:06:14.570Z,19.67
2019-03-22T15:08:50.497Z,19.25
2019-03-22T15:11:30.521Z,18.86
2019-03-22T15:14:45.981Z,19.08
2019-03-22T15:17:32.120Z,19.23
2019-03-22T15:20:40.024Z,19.46
2019-03-22T15:23:34.126Z,19.26
2019-03-22T15:26:30.041Z,19.33
2019-03-22T15:29:18.322Z,19.58
2019-03-22T15:31:58.533Z,19.20
2019-03-22T15:34:48.509Z,18.98
2019-03-22T15:40:16.371Z,19.12
2019-03-22T15:42:48.337Z,19.18
2019-03-22T15:45:31.380Z,19.09
2019-03-22T15:48:02.206Z,19.08
2019-03-22T15:50:35.407Z,19.13
2019-03-22T15:53:20.135Z,18.74
2019-03-22T15:55:51.118Z,18.75
2019-03-22T15:58:27.327Z,18.54
2019-03-22T16:01:02.617Z,18.37
2019-03-22T16:03:44.333Z,18.30
2019-03-22T16:06:17.146Z,18.17
2019-03-22T16:08:53.959Z,17.98
2019-03-22T16:11:33.486Z,17.80
2019-03-22T16:14:09.872Z,17.68
2019-03-22T16:16:46.724Z,17.67
2019-03-22T16:19:26.022Z,17.57
2019-03-22T16:21:56.884Z,17.42
2019-03-22T16:24:35.067Z,17.36
2019-03-22T16:27:07.632Z,17.28
2019-03-22T16:29:44.870Z,17.06
2019-03-22T16:32:15.680Z,16.97
2019-03-22T16:34:56.474Z,16.93
2019-03-22T16:37:27.449Z,16.83
2019-03-22T16:40:11.924Z,16.72
2019-03-22T16:42:42.802Z,16.65
2019-03-22T16:45:35.185Z,16.51
2019-03-22T16:48:07.863Z,16.36
2019-03-22T16:50:38.649Z,16.19
2019-03-22T16:53:18.355Z,15.99
2019-03-22T16:55:55.251Z,15.75
2019-03-22T16:58:33.800Z,15.57
2019-03-22T17:01:06.839Z,15.40
2019-03-22T17:03:37.750Z,15.28
2019-03-22T17:06:09.120Z,15.06
2019-03-22T17:08:42.629Z,14.79
2019-03-22T17:11:13.820Z,14.68
2019-03-22T17:13:54.655Z,14.58
2019-03-22T17:16:26.425Z,14.38
2019-03-22T17:19:09.353Z,14.13
2019-03-22T17:21:40.349Z,14.15
2019-03-22T17:24:11.108Z,14.07
2019-03-22T17:26:42.507Z,14.05
2019-03-22T17:29:13.333Z,13.91
2019-03-22T17:31:44.037Z,13.57
2019-03-22T17:34:14.882Z,13.55
2019-03-22T17:36:45.664Z,13.33
2019-03-22T17:39:17.477Z,13.31
2019-03-22T17:41:48.384Z,13.08
2019-03-22T17:44:19.145Z,13.09
2019-03-22T17:46:50.038Z,12.84
2019-03-22T17:49:21.181Z,12.66
2019-03-22T17:51:51.917Z,12.65
2019-03-22T17:54:23.826Z,12.32
2019-03-22T17:56:54.684Z,12.10
2019-03-22T17:59:25.439Z,12.04
2019-03-22T18:01:56.413Z,12.00
2019-03-22T18:04:27.379Z,11.85
2019-03-22T18:06:58.101Z,11.70
2019-03-22T18:09:28.868Z,11.44
2019-03-22T18:11:59.624Z,11.32
2019-03-22T18:14:30.378Z,11.25
2019-03-22T18:17:01.644Z,10.96
2019-03-22T18:19:32.394Z,10.72
2019-03-22T18:22:03.380Z,10.71
2019-03-22T18:24:34.140Z,10.64
2019-03-22T18:27:04.853Z,10.42
2019-03-22T18:29:35.613Z,10.29
2019-03-22T18:32:07.349Z,10.33
2019-03-22T18:34:38.083Z,10.10
2019-03-22T18:37:08.796Z,9.89
2019-03-22T18:39:39.530Z,9.94
2019-03-22T18:42:10.248Z,9.85
2019-03-22T18:44:40.969Z,9.68
2019-03-22T18:47:11.799Z,9.55
2019-03-22T18:49:42.551Z,9.67
2019-03-22T18:52:13.259Z,9.70
2019-03-22T18:54:43.965Z,9.72
2019-03-22T18:57:15.555Z,9.71
2019-03-22T18:59:46.549Z,9.67
2019-03-22T19:02:17.400Z,9.46
2019-03-22T19:04:48.153Z,9.36
2019-03-22T19:07:18.956Z,9.21
2019-03-22T19:09:49.689Z,9.25
2019-03-22T19:12:20.587Z,9.11
2019-03-22T19:14:51.570Z,9.14
2019-03-22T19:17:22.754Z,9.07
2019-03-22T19:19:53.472Z,8.96
2019-03-22T19:22:24.205Z,8.94
2019-03-22T19:24:54.997Z,8.83
2019-03-22T19:27:25.755Z,8.70
2019-03-22T19:29:57.178Z,8.67
2019-03-22T19:32:27.935Z,8.56
2019-03-22T19:34:58.679Z,8.43
2019-03-22T19:37:29.422Z,8.35
2019-03-22T19:40:00.446Z,8.23
2019-03-22T19:42:31.163Z,8.32
2019-03-22T19:45:02.127Z,8.35
2019-03-22T19:47:32.916Z,8.50
2019-03-22T19:50:03.689Z,8.55
2019-03-22T19:52:34.436Z,8.40
2019-03-22T19:55:05.896Z,8.17
2019-03-22T19:57:36.839Z,7.90
2019-03-22T20:00:09.672Z,7.82
2019-03-22T20:02:40.410Z,7.64
2019-03-22T20:05:11.284Z,7.52
2019-03-22T20:07:42.000Z,7.49
2019-03-22T20:10:14.563Z,7.44
2019-03-22T20:12:45.298Z,7.39
2019-03-22T20:15:16.026Z,7.27
2019-03-22T20:17:46.760Z,7.25
2019-03-22T20:20:17.680Z,7.24
2019-03-22T20:22:48.433Z,7.10
2019-03-22T20:25:19.218Z,7.08
2019-03-22T20:27:49.929Z,6.96
2019-03-22T20:30:21.135Z,6.88
2019-03-22T20:32:51.900Z,6.75
2019-03-22T20:35:22.626Z,6.83
2019-03-22T20:37:53.403Z,6.90
2019-03-22T20:40:24.417Z,6.93
2019-03-22T20:42:55.145Z,7.25
2019-03-22T20:45:26.185Z,7.43
2019-03-22T20:47:57.000Z,7.36
2019-03-22T20:50:35.687Z,6.93
2019-03-22T20:53:00.525Z,6.78
2019-03-22T20:55:31.252Z,6.85
2019-03-22T20:58:02.736Z,6.77
2019-03-22T21:00:33.477Z,6.86
2019-03-22T21:03:04.306Z,6.75
2019-03-22T21:05:35.041Z,6.59
2019-03-22T21:08:05.779Z,6.47
2019-03-22T21:10:36.839Z,6.52
2019-03-22T21:13:07.633Z,6.35
2019-03-22T21:15:38.339Z,6.25
2019-03-22T21:18:09.335Z,6.36
2019-03-22T21:20:40.041Z,6.31
2019-03-22T21:23:10.763Z,6.36
2019-03-22T21:25:41.456Z,6.32
2019-03-22T21:28:12.202Z,6.20
2019-03-22T21:30:42.972Z,6.00
2019-03-22T21:33:13.755Z,5.81
2019-03-22T21:35:44.544Z,5.77
2019-03-22T21:38:15.801Z,5.70
2019-03-22T21:40:46.817Z,5.62
2019-03-22T21:43:17.559Z,5.57
2019-03-22T21:45:48.331Z,5.50
2019-03-22T21:48:19.051Z,5.61
2019-03-22T21:50:49.863Z,5.64
2019-03-22T21:53:21.315Z,5.65
2019-03-22T21:55:54.156Z,5.72
2019-03-22T21:58:24.453Z,5.68
2019-03-22T22:00:55.452Z,5.49
2019-03-22T22:03:26.182Z,5.09
2019-03-22T22:05:57.490Z,4.99
2019-03-22T22:08:28.235Z,5.18
2019-03-22T22:11:00.091Z,5.32
2019-03-22T22:13:30.954Z,5.27
2019-03-22T22:16:01.875Z,4.96
2019-03-22T22:18:33.197Z,5.03
2019-03-22T22:21:03.989Z,5.15
2019-03-22T22:23:34.726Z,5.12
2019-03-22T22:26:05.450Z,4.96
2019-03-22T22:28:36.280Z,4.78
2019-03-22T22:31:07.059Z,4.59
2019-03-22T22:33:37.811Z,4.60
2019-03-22T22:36:08.667Z,4.60
2019-03-22T22:38:39.398Z,4.38
2019-03-22T22:41:10.438Z,4.20
2019-03-22T22:43:41.423Z,4.30
2019-03-22T22:46:12.401Z,4.55
2019-03-22T22:48:43.154Z,4.69
2019-03-22T22:51:13.877Z,4.58
2019-03-22T22:53:44.642Z,4.31
2019-03-22T22:56:15.352Z,4.18
2019-03-22T22:58:46.072Z,4.05
2019-03-22T23:01:16.926Z,4.02
2019-03-22T23:03:47.669Z,3.97
2019-03-22T23:06:18.410Z,3.96
2019-03-22T23:08:49.218Z,3.93
2019-03-22T23:11:20.186Z,3.83
2019-03-22T23:13:51.323Z,3.71
2019-03-22T23:16:22.067Z,3.66
2019-03-22T23:18:52.873Z,3.66
2019-03-22T23:21:23.784Z,3.79
2019-03-22T23:23:54.761Z,3.92
2019-03-22T23:26:25.471Z,4.05
2019-03-22T23:28:56.432Z,3.90
2019-03-22T23:31:27.154Z,3.81
2019-03-22T23:33:57.985Z,3.59
2019-03-22T23:36:28.727Z,3.70
2019-03-22T23:38:59.573Z,3.53
2019-03-22T23:41:30.327Z,3.43
2019-03-22T23:44:02.581Z,3.35
2019-03-22T23:46:33.330Z,3.13
2019-03-22T23:49:04.067Z,3.09
2019-03-22T23:51:34.955Z,2.90
2019-03-22T23:54:05.693Z,2.80
2019-03-22T23:56:36.399Z,2.88
2019-03-22T23:59:07.795Z,3.14
